This is the latest recevied weather packets stored in our database for station/object W4CKA. If no packets are shown the sender has not sent any weather packets the latest 1 day(s).
| Time | Temp. | Humidity | Pressure | Rain* | Wind** | Luminosity | Snow |
|---|---|---|---|---|---|---|---|
| 1778094274 | 21.11° C | 87% | 1054.5 hPa | 0 mm | - | 198 W/m² | - |
| 1778093674 | 20.56° C | 88% | 1054.7 hPa | 0 mm | - | 306 W/m² | - |
| 1778093073 | 20.56° C | 90% | 1054.4 hPa | 0 mm | - | 127 W/m² | - |
| 1778090660 | 20.56° C | 88% | 1053.9 hPa | 0 mm | - | 172 W/m² | - |
| 1778090060 | 21.11° C | 88% | 1053.9 hPa | 0 mm | - | 322 W/m² | - |
| 1778087660 | 18.89° C | 95% | 1054.3 hPa | 0 mm | - | 196 W/m² | - |
| 1778084048 | 17.78° C | 98% | 1054.6 hPa | 0.51 mm | - | 106 W/m² | - |
| 1778079313 | 17.78° C | 98% | 1055.1 hPa | 0 mm | - | 49 W/m² | - |
| 1778078713 | 17.22° C | 98% | 1054.9 hPa | 0 mm | - | 39 W/m² | - |
| 1778075092 | 15.56° C | 99% | 1054.1 hPa | 0 mm | - | 46 W/m² | - |
| 1778074492 | 15° C | 99% | 1054.1 hPa | 0 mm | - | 35 W/m² | - |
| 1778073891 | 15° C | 99% | 1054.1 hPa | 0 mm | - | 51 W/m² | - |
| 1778073291 | 15° C | 99% | 1054.1 hPa | 0 mm | - | 50 W/m² | - |
| 1778072086 | 15° C | 99% | 1053.9 hPa | 0 mm | - | 31 W/m² | - |
| 1778070877 | 14.44° C | 99% | 1053.7 hPa | 0 mm | - | 32 W/m² | - |
| 1778069072 | 14.44° C | 99% | 1053.7 hPa | 0 mm | - | 26 W/m² | - |
| 1778067862 | 14.44° C | 99% | 1052.6 hPa | 0 mm | - | 35 W/m² | - |
| 1778065454 | 14.44° C | 99% | 1052.7 hPa | 0 mm | - | 0 W/m² | - |
| 1778064248 | 14.44° C | 98% | 1052.4 hPa | 0 mm | - | 0 W/m² | - |
| 1778061228 | 13.89° C | 98% | 1051.7 hPa | 0 mm | - | 0 W/m² | - |
| 1778060623 | 13.89° C | 98% | 1052 hPa | 0 mm | - | 0 W/m² | - |
| 1778059419 | 14.44° C | 98% | 1051.8 hPa | 0 mm | - | 0 W/m² | - |
| 1778058819 | 13.89° C | 98% | 1051.7 hPa | 0 mm | - | 0 W/m² | - |
| 1778058220 | 13.89° C | 98% | 1051.7 hPa | 0 mm | - | 0 W/m² | - |
| 1778057618 | 13.89° C | 98% | 1051.6 hPa | 0 mm | - | 0 W/m² | - |
* Rain latest hour (hover to see other rain measurements)
** Current wind speed in m/s (hover to see current wind gust speed)